Time;durP1;ratioP1;P1;durP2;ratioP2;P2;SDS_P1;SDS_P2;PMS_P1;PMS_P2;Temp;Humidity;BMP_temperature;BMP_pressure;BME280_temperature;BME280_humidity;BME280_pressure;Samples;Min_cycle;Max_cycle;Signal;HPM_P1;HPM_P2
2021/03/03 00:00:28;;;;;;;50.95;25.13;;;;;;;2.21;91.27;102411.59;4976658;28;20068;-85
2021/03/03 00:02:54;;;;;;;48.28;24.02;;;;;;;2.16;91.40;102405.50;4970938;28;20106;-86
2021/03/03 00:05:21;;;;;;;51.10;23.70;;;;;;;2.15;91.44;102403.75;4965270;28;20106;-84
2021/03/03 00:07:48;;;;;;;47.72;23.98;;;;;;;2.13;91.43;102402.88;4972650;28;20115;-85
2021/03/03 00:10:15;;;;;;;59.55;26.10;;;;;;;2.11;91.88;102401.13;4975899;28;20066;-85
2021/03/03 00:12:41;;;;;;;56.58;26.33;;;;;;;2.08;91.80;102395.94;4978829;28;20074;-85
2021/03/03 00:15:09;;;;;;;52.58;25.35;;;;;;;2.05;91.86;102396.78;4977584;28;20134;-84
2021/03/03 00:17:36;;;;;;;60.28;27.65;;;;;;;2.06;91.85;102392.44;4971208;28;20149;-86
2021/03/03 00:20:04;;;;;;;61.90;28.00;;;;;;;2.06;92.15;102392.44;4987498;28;20050;-85
2021/03/03 00:22:30;;;;;;;60.95;28.95;;;;;;;2.01;92.37;102395.91;4988118;28;20058;-84
2021/03/03 00:24:57;;;;;;;65.32;31.10;;;;;;;1.99;92.64;102395.03;4983673;28;20051;-85
2021/03/03 00:27:24;;;;;;;74.40;34.83;;;;;;;1.96;92.58;102396.75;4978181;28;20491;-85
2021/03/03 00:30:10;;;;;;;53.17;27.23;;;;;;;1.94;92.68;102401.06;4975193;28;20054;-83
2021/03/03 00:32:37;;;;;;;63.80;28.63;;;;;;;1.93;93.25;102391.53;4977611;28;20057;-83
2021/03/03 00:35:04;;;;;;;70.07;27.30;;;;;;;1.96;93.34;102392.41;4975767;28;20069;-85
2021/03/03 00:37:31;;;;;;;64.30;27.45;;;;;;;1.96;93.44;102389.81;4987893;28;20079;-85
2021/03/03 00:39:57;;;;;;;69.90;30.40;;;;;;;2.15;93.13;102392.50;4961115;28;20162;-85
2021/03/03 00:42:24;;;;;;;61.55;26.52;;;;;;;2.00;93.27;102391.56;4971652;28;20054;-83
2021/03/03 00:44:51;;;;;;;62.53;28.65;;;;;;;1.93;93.43;102387.19;4980239;28;20047;-85
2021/03/03 00:47:17;;;;;;;69.45;28.10;;;;;;;1.89;93.86;102385.47;4974293;28;20054;-84
2021/03/03 00:49:44;;;;;;;56.95;25.42;;;;;;;1.82;94.39;102386.28;4976832;28;20329;-85
2021/03/03 00:52:11;;;;;;;55.60;25.15;;;;;;;1.80;94.50;102389.72;4963258;28;20126;-85
2021/03/03 00:54:38;;;;;;;60.10;26.60;;;;;;;1.76;94.67;102399.25;4979485;28;20061;-85
2021/03/03 00:57:05;;;;;;;61.67;28.45;;;;;;;1.76;95.30;102394.91;4957462;28;20055;-86
2021/03/03 00:59:57;;;;;;;67.40;28.15;;;;;;;1.77;95.11;102394.03;4969527;28;20058;-84
2021/03/03 01:02:24;;;;;;;61.33;25.38;;;;;;;1.76;95.59;102389.72;4994694;28;20053;-85
2021/03/03 01:04:54;;;;;;;55.38;25.70;;;;;;;1.73;95.90;102388.81;4979022;28;20046;-85
2021/03/03 01:07:21;;;;;;;61.38;26.88;;;;;;;1.70;95.97;102384.47;4980306;28;20051;-84
2021/03/03 01:09:47;;;;;;;58.90;27.42;;;;;;;1.74;96.55;102380.16;4978997;28;20478;-86
2021/03/03 01:12:14;;;;;;;58.30;27.17;;;;;;;1.88;95.89;102367.25;4977403;28;20050;-84
2021/03/03 01:14:44;;;;;;;59.80;28.60;;;;;;;2.19;95.11;102373.47;4981758;28;20047;-85
2021/03/03 01:17:11;;;;;;;64.80;28.45;;;;;;;2.04;95.41;102369.06;4973203;28;20400;-84
2021/03/03 01:19:38;;;;;;;63.08;29.67;;;;;;;1.83;95.91;102363.78;4979287;28;20126;-85
2021/03/03 01:22:04;;;;;;;67.43;29.17;;;;;;;1.74;96.24;102356.81;4974249;28;20058;-84
2021/03/03 01:24:31;;;;;;;65.85;28.75;;;;;;;1.64;97.11;102358.50;4959494;28;20113;-85
2021/03/03 01:26:58;;;;;;;62.22;30.30;;;;;;;1.56;97.92;102354.09;4989919;28;20053;-84
2021/03/03 01:29:25;;;;;;;67.38;30.27;;;;;;;1.55;98.46;102362.75;4960178;28;20113;-84
2021/03/03 01:31:54;;;;;;;68.65;30.60;;;;;;;1.55;98.92;102354.97;4945326;28;20047;-85
2021/03/03 01:34:21;;;;;;;66.47;30.58;;;;;;;1.62;98.81;102352.44;4977687;28;20085;-86
2021/03/03 01:36:48;;;;;;;66.05;28.88;;;;;;;1.54;98.79;102355.84;4973337;28;20468;-86
2021/03/03 01:39:15;;;;;;;63.17;30.30;;;;;;;1.52;98.66;102356.69;4976439;28;20055;-84
2021/03/03 01:41:41;;;;;;;67.38;28.98;;;;;;;1.49;98.79;102354.09;4967886;28;20062;-85
2021/03/03 01:44:08;;;;;;;73.57;30.70;;;;;;;1.42;99.22;102339.31;4995675;28;20217;-84
2021/03/03 01:46:35;;;;;;;61.30;28.02;;;;;;;1.41;99.51;102341.91;4979609;28;20042;-83
2021/03/03 01:49:02;;;;;;;67.47;29.83;;;;;;;1.38;99.66;102340.16;4978081;28;20121;-84
2021/03/03 01:51:29;;;;;;;66.53;28.17;;;;;;;1.36;99.82;102336.69;4962085;28;20130;-85
2021/03/03 01:53:55;;;;;;;58.80;26.92;;;;;;;1.36;100.00;102322.84;4974724;28;20547;-85
2021/03/03 01:56:23;;;;;;;64.18;27.73;;;;;;;1.46;100.00;102329.84;4956516;28;20066;-84
2021/03/03 01:59:04;;;;;;;60.78;27.38;;;;;;;1.69;99.59;102325.63;4979274;28;20054;-83
2021/03/03 02:01:30;;;;;;;57.42;26.33;;;;;;;1.81;98.87;102316.19;4972060;28;20054;-84
2021/03/03 02:03:57;;;;;;;65.63;26.95;;;;;;;1.98;98.00;102311.88;4974169;28;20050;-83
2021/03/03 02:06:29;;;;;;;56.70;25.25;;;;;;;2.07;97.17;102306.72;4979695;28;20073;-83
2021/03/03 02:09:02;;;;;;;50.83;23.60;;;;;;;2.08;96.47;102305.03;4975909;28;20206;-83
2021/03/03 02:11:42;;;;;;;57.63;26.75;;;;;;;2.18;96.38;102304.19;4957443;28;20066;-85
2021/03/03 02:14:28;;;;;;;66.95;25.85;;;;;;;2.33;95.55;102299.00;4987090;28;20049;-84
2021/03/03 02:16:55;;;;;;;55.08;24.05;;;;;;;2.37;95.15;102299.88;4963642;28;20039;-83
2021/03/03 02:19:25;;;;;;;59.80;25.48;;;;;;;2.10;95.58;102295.50;4982590;28;20061;-84
2021/03/03 02:22:05;;;;;;;55.67;24.48;;;;;;;1.97;96.49;102289.38;4981588;28;20057;-85
2021/03/03 02:24:40;;;;;;;51.25;23.13;;;;;;;2.28;96.04;102290.34;4977871;28;20062;-84
2021/03/03 02:27:06;;;;;;;53.67;24.05;;;;;;;2.26;95.81;102297.28;4957502;28;20137;-84
2021/03/03 02:29:33;;;;;;;59.05;24.48;;;;;;;2.11;95.82;102285.09;4967298;28;20039;-83
2021/03/03 02:32:00;;;;;;;57.10;24.08;;;;;;;2.11;96.04;102292.88;4971388;28;20869;-86
2021/03/03 02:34:28;;;;;;;52.70;23.52;;;;;;;2.14;95.74;102292.03;4974882;28;20051;-85
2021/03/03 02:36:57;;;;;;;53.10;24.10;;;;;;;2.21;95.76;102293.81;4971698;28;20126;-84
2021/03/03 02:39:25;;;;;;;56.10;25.85;;;;;;;2.31;95.25;102285.16;4974820;28;20094;-83
2021/03/03 02:41:54;;;;;;;51.78;24.33;;;;;;;2.29;94.64;102277.34;4973883;28;20120;-84
2021/03/03 02:44:21;;;;;;;58.65;24.08;;;;;;;2.15;94.88;102283.38;4976310;28;20072;-85
2021/03/03 02:46:48;;;;;;;55.65;24.38;;;;;;;1.99;95.64;102280.75;4958844;28;20185;-83
2021/03/03 02:49:18;;;;;;;56.92;23.58;;;;;;;2.06;95.83;102273.81;4945142;28;20142;-87
2021/03/03 02:51:44;;;;;;;54.50;24.48;;;;;;;1.98;95.83;102262.53;4974861;28;20051;-85
2021/03/03 02:54:13;;;;;;;64.68;24.40;;;;;;;1.83;96.50;102259.91;4976447;28;20043;-84
2021/03/03 02:56:40;;;;;;;54.72;23.75;;;;;;;1.66;96.90;102252.91;4990103;28;20046;-82
2021/03/03 02:59:25;;;;;;;57.10;24.05;;;;;;;1.60;98.10;102244.25;4980452;28;20047;-85
2021/03/03 03:02:01;;;;;;;55.42;24.15;;;;;;;1.58;98.21;102245.97;4970739;28;20431;-84
2021/03/03 03:04:31;;;;;;;60.55;24.77;;;;;;;1.57;98.48;102241.63;4974637;28;20415;-85
2021/03/03 03:07:01;;;;;;;64.05;26.00;;;;;;;1.88;98.03;102235.69;4992467;28;20403;-85
2021/03/03 03:09:31;;;;;;;64.65;25.02;;;;;;;1.97;97.34;102237.44;4998324;28;20051;-84
2021/03/03 03:11:58;;;;;;;55.38;23.70;;;;;;;2.10;96.79;102227.94;4991902;28;20066;-84
2021/03/03 03:14:26;;;;;;;52.60;24.73;;;;;;;2.03;96.72;102214.97;4974455;28;20074;-84
2021/03/03 03:16:56;;;;;;;55.40;24.02;;;;;;;2.00;96.70;102214.06;4976125;28;20051;-85
2021/03/03 03:19:35;;;;;;;57.95;23.60;;;;;;;2.06;96.42;102221.88;4964874;28;20046;-84
2021/03/03 03:22:02;;;;;;;53.20;22.63;;;;;;;2.24;94.94;102231.44;4978723;28;20050;-83
2021/03/03 03:24:31;;;;;;;53.95;23.23;;;;;;;2.19;95.29;102231.41;4976537;28;20085;-84
2021/03/03 03:26:58;;;;;;;56.20;23.30;;;;;;;2.26;94.44;102225.38;4985471;28;20509;-82
2021/03/03 03:29:26;;;;;;;46.72;20.77;;;;;;;2.25;94.30;102233.16;4991543;28;20144;-82
2021/03/03 03:31:54;;;;;;;53.47;21.70;;;;;;;2.21;93.95;102226.25;4993907;28;20056;-84
2021/03/03 03:34:23;;;;;;;52.03;23.08;;;;;;;2.19;94.05;102222.75;4992037;28;20096;-83
2021/03/03 03:36:51;;;;;;;50.67;22.25;;;;;;;2.22;93.90;102226.22;4976126;28;20106;-85
2021/03/03 03:39:18;;;;;;;51.20;22.63;;;;;;;2.27;93.54;102215.84;4993563;28;20538;-84
2021/03/03 03:41:47;;;;;;;52.40;22.77;;;;;;;2.21;92.85;102221.06;4971697;28;20077;-85
2021/03/03 03:44:17;;;;;;;56.72;23.83;;;;;;;1.99;93.68;102220.16;4986021;28;20111;-84
2021/03/03 03:46:46;;;;;;;55.78;24.05;;;;;;;1.74;94.42;102219.19;4976740;28;20050;-83
2021/03/03 03:49:20;;;;;;;51.33;23.52;;;;;;;1.53;95.69;102214.78;4981891;28;20055;-84
2021/03/03 03:51:47;;;;;;;55.60;24.55;;;;;;;1.49;96.71;102215.66;4962705;28;20162;-84
2021/03/03 03:54:14;;;;;;;50.40;22.52;;;;;;;1.67;96.66;102220.06;4978931;28;20107;-84
2021/03/03 03:56:43;;;;;;;53.63;23.63;;;;;;;1.64;96.42;102215.72;4983674;28;20071;-83
2021/03/03 03:59:09;;;;;;;54.05;24.80;;;;;;;1.39;96.42;102225.09;4973700;28;20216;-85
2021/03/03 04:01:36;;;;;;;52.22;24.02;;;;;;;1.27;97.65;102218.16;4971880;28;20058;-84
2021/03/03 04:04:03;;;;;;;50.85;22.80;;;;;;;1.31;97.48;102219.03;4984286;28;20114;-83
2021/03/03 04:06:33;;;;;;;57.53;24.52;;;;;;;1.50;97.55;102215.66;4983123;28;20050;-82
2021/03/03 04:09:00;;;;;;;52.05;23.05;;;;;;;1.48;97.01;102213.91;4984155;28;20093;-82
2021/03/03 04:11:29;;;;;;;56.38;23.75;;;;;;;1.38;97.50;102210.41;4976381;28;20042;-83
2021/03/03 04:13:56;;;;;;;46.15;21.10;;;;;;;1.43;97.38;102216.47;4973739;28;20047;-84
2021/03/03 04:16:25;;;;;;;47.00;22.05;;;;;;;1.49;97.35;102213.06;4984399;28;20146;-80
2021/03/03 04:18:54;;;;;;;50.83;22.83;;;;;;;1.66;96.67;102210.50;4974803;28;20440;-84
2021/03/03 04:21:21;;;;;;;49.63;22.48;;;;;;;1.75;95.62;102210.53;4982598;28;20122;-83
2021/03/03 04:23:47;;;;;;;47.30;23.20;;;;;;;1.79;95.34;102209.69;4979107;28;20042;-84
2021/03/03 04:26:14;;;;;;;49.97;23.10;;;;;;;1.76;95.39;102212.31;4972951;28;20105;-82
2021/03/03 04:28:41;;;;;;;53.72;24.77;;;;;;;1.55;95.54;102223.47;4994651;28;20051;-83
2021/03/03 04:31:08;;;;;;;54.85;23.63;;;;;;;1.51;96.37;102216.53;4976451;28;20119;-83
2021/03/03 04:33:35;;;;;;;49.17;22.48;;;;;;;1.66;95.86;102205.31;4993446;28;20428;-82
2021/03/03 04:36:05;;;;;;;51.50;23.15;;;;;;;1.75;95.08;102202.75;4977959;28;20377;-84
2021/03/03 04:38:35;;;;;;;47.95;22.67;;;;;;;1.73;94.69;102202.75;4978671;28;20034;-85
2021/03/03 04:41:02;;;;;;;52.83;23.40;;;;;;;1.73;95.13;102196.69;4977158;28;20118;-84
2021/03/03 04:43:29;;;;;;;52.85;23.23;;;;;;;1.69;95.08;102190.63;4980130;28;20472;-84
2021/03/03 04:45:55;;;;;;;59.17;24.27;;;;;;;1.55;95.09;102199.25;4976214;28;20138;-83
2021/03/03 04:48:22;;;;;;;55.15;23.90;;;;;;;1.58;95.97;102191.47;4974895;28;20121;-84
2021/03/03 04:50:49;;;;;;;51.83;24.48;;;;;;;1.54;96.43;102184.53;4978983;28;20077;-84
2021/03/03 04:53:16;;;;;;;47.78;22.75;;;;;;;1.59;96.01;102183.69;4980445;28;20065;-85
2021/03/03 04:55:43;;;;;;;50.08;22.35;;;;;;;1.70;95.30;102181.97;4990973;28;20054;-83
2021/03/03 04:58:11;;;;;;;52.20;22.95;;;;;;;1.72;95.75;102171.59;4979280;28;20081;-84
2021/03/03 05:00:38;;;;;;;52.55;23.27;;;;;;;1.72;95.68;102179.41;4977170;28;20062;-84
2021/03/03 05:03:05;;;;;;;54.83;23.50;;;;;;;1.61;95.79;102168.97;4991017;28;20449;-83
2021/03/03 05:05:32;;;;;;;55.97;24.23;;;;;;;1.60;96.33;102169.84;4973598;28;20282;-83
2021/03/03 05:07:58;;;;;;;56.15;22.88;;;;;;;1.51;96.40;102170.66;4984715;28;20047;-83
2021/03/03 05:10:25;;;;;;;56.35;24.60;;;;;;;1.62;96.49;102172.41;4989713;28;20053;-83
2021/03/03 05:12:52;;;;;;;54.13;25.08;;;;;;;1.53;96.20;102178.44;4964239;28;20165;-84
2021/03/03 05:15:19;;;;;;;48.85;22.77;;;;;;;1.63;96.15;102174.19;4976940;28;20051;-84
2021/03/03 05:17:46;;;;;;;55.88;23.65;;;;;;;1.68;95.24;102170.72;4971575;28;20109;-83
2021/03/03 05:20:13;;;;;;;50.53;24.73;;;;;;;1.39;95.32;102165.44;4960534;28;20591;-83
2021/03/03 05:22:39;;;;;;;57.83;26.20;;;;;;;1.11;96.95;102171.38;4979888;28;20499;-82
2021/03/03 05:25:07;;;;;;;56.05;24.65;;;;;;;1.07;97.66;102164.44;4979098;28;20119;-84
2021/03/03 05:27:34;;;;;;;52.85;24.55;;;;;;;1.12;98.57;102160.13;4974400;28;20114;-85
2021/03/03 05:30:00;;;;;;;52.20;23.98;;;;;;;1.10;98.62;102161.88;4970988;28;20545;-85
2021/03/03 05:32:27;;;;;;;52.72;25.58;;;;;;;1.14;98.44;102163.63;4972159;28;20059;-85
2021/03/03 05:34:54;;;;;;;50.72;24.10;;;;;;;1.26;97.98;102161.94;4958101;28;20043;-86
2021/03/03 05:37:21;;;;;;;59.45;26.17;;;;;;;1.15;97.59;102166.22;4959707;28;20053;-85
2021/03/03 05:39:47;;;;;;;52.53;23.60;;;;;;;1.18;97.96;102166.22;4960653;28;20134;-87
2021/03/03 05:42:14;;;;;;;50.70;23.65;;;;;;;1.22;97.80;102164.53;4976163;28;20200;-85
2021/03/03 05:44:44;;;;;;;49.60;24.48;;;;;;;1.21;97.45;102167.94;4965715;28;20038;-85
2021/03/03 05:47:11;;;;;;;58.17;24.52;;;;;;;1.15;97.81;102166.22;4984733;28;20065;-85
2021/03/03 05:49:39;;;;;;;61.25;25.75;;;;;;;1.22;97.46;102167.13;4986011;28;20035;-85
2021/03/03 05:52:06;;;;;;;51.13;22.70;;;;;;;1.22;97.49;102165.38;4974093;28;20059;-86
2021/03/03 05:54:35;;;;;;;52.45;24.58;;;;;;;1.30;96.50;102168.00;4973768;28;20130;-85
2021/03/03 05:57:01;;;;;;;68.03;26.73;;;;;;;1.26;96.65;102168.84;4988428;28;20077;-85
2021/03/03 05:59:31;;;;;;;49.25;24.45;;;;;;;1.21;96.96;102170.56;4971014;28;20046;-84
2021/03/03 06:01:58;;;;;;;60.42;25.00;;;;;;;1.14;97.21;102171.41;4987907;28;20069;-85
2021/03/03 06:04:25;;;;;;;48.10;23.20;;;;;;;1.11;97.10;102163.59;4959819;28;20051;-86
2021/03/03 06:06:52;;;;;;;59.80;24.67;;;;;;;1.10;97.34;102165.31;4984482;28;20141;-84
2021/03/03 06:09:19;;;;;;;48.25;25.40;;;;;;;1.09;97.07;102166.19;4982393;28;20070;-84
2021/03/03 06:11:46;;;;;;;49.17;23.10;;;;;;;1.09;97.34;102161.00;4971333;28;20048;-84
2021/03/03 06:14:13;;;;;;;55.55;24.10;;;;;;;1.11;96.98;102153.22;4990953;28;20106;-86
2021/03/03 06:16:40;;;;;;;51.08;23.80;;;;;;;1.19;97.22;102160.19;4992418;28;20058;-84
2021/03/03 06:19:07;;;;;;;48.55;23.65;;;;;;;1.17;96.89;102154.13;4958160;28;20559;-85
2021/03/03 06:21:33;;;;;;;50.83;24.48;;;;;;;1.21;96.43;102160.16;4966465;28;20051;-83
2021/03/03 06:24:08;;;;;;;50.03;22.35;;;;;;;1.22;95.99;102167.13;4973863;28;20114;-84
2021/03/03 06:26:53;;;;;;;46.28;21.60;;;;;;;1.22;95.66;102167.97;4952198;28;20063;-81
2021/03/03 06:29:20;;;;;;;48.33;24.25;;;;;;;1.16;96.07;102170.53;4998502;28;20098;-80
2021/03/03 06:31:48;;;;;;;46.15;23.73;;;;;;;1.18;95.83;102170.56;4980833;28;20082;-81
2021/03/03 06:34:20;;;;;;;49.92;22.42;;;;;;;1.21;95.33;102168.81;4969895;28;20062;-82
2021/03/03 06:36:56;;;;;;;55.45;23.25;;;;;;;1.33;95.45;102164.56;4962379;28;20539;-85
2021/03/03 06:39:31;;;;;;;51.55;22.95;;;;;;;1.32;95.30;102155.91;4981661;28;20053;-84
2021/03/03 06:42:05;;;;;;;46.22;22.95;;;;;;;1.41;95.01;102158.53;4967747;28;20054;-83
2021/03/03 06:44:56;;;;;;;52.35;24.25;;;;;;;1.86;93.51;102150.88;4968524;28;20098;-83
2021/03/03 06:47:23;;;;;;;43.83;21.10;;;;;;;2.92;89.43;102143.84;4965728;28;20057;-83
2021/03/03 06:49:51;;;;;;;42.63;21.15;;;;;;;3.71;84.15;102145.22;4965933;28;20097;-83
2021/03/03 06:52:37;;;;;;;48.42;22.48;;;;;;;4.06;80.88;102143.25;4955174;28;20111;-83
2021/03/03 06:55:04;;;;;;;39.40;19.60;;;;;;;4.74;79.28;102135.66;4967646;28;20164;-82
2021/03/03 06:57:31;;;;;;;44.42;20.15;;;;;;;5.44;75.83;102143.53;4981712;28;20047;-83
2021/03/03 06:59:58;;;;;;;40.58;19.80;;;;;;;5.45;75.72;102135.69;4975362;28;20103;-85
2021/03/03 07:02:31;;;;;;;39.67;21.00;;;;;;;5.61;73.85;102135.47;4984142;28;20083;-83
2021/03/03 07:05:06;;;;;;;43.95;20.65;;;;;;;6.13;71.56;102130.34;4967197;28;20444;-82
2021/03/03 07:07:32;;;;;;;47.95;20.17;;;;;;;7.14;67.72;102125.00;4974947;28;20110;-82
2021/03/03 07:10:00;;;;;;;41.25;20.00;;;;;;;7.47;66.30;102108.53;4974555;28;20566;-82
2021/03/03 07:12:29;;;;;;;40.45;21.13;;;;;;;7.28;66.19;102107.22;4982677;28;20047;-82
2021/03/03 07:15:06;;;;;;;41.83;19.88;;;;;;;7.27;66.80;102111.59;4973877;28;20142;-83
2021/03/03 07:17:34;;;;;;;38.70;20.13;;;;;;;7.15;66.69;102119.72;4990530;28;20043;-82
2021/03/03 07:20:04;;;;;;;45.97;21.02;;;;;;;7.22;66.85;102113.47;4954766;28;20070;-84
2021/03/03 07:22:31;;;;;;;43.85;21.42;;;;;;;7.07;67.16;102126.88;4963316;28;20507;-84
2021/03/03 07:25:11;;;;;;;36.90;20.92;;;;;;;7.79;64.80;102120.94;4999143;28;20045;-82
2021/03/03 07:27:40;;;;;;;48.00;20.80;;;;;;;9.54;59.84;102111.81;4990629;28;20043;-83
2021/03/03 07:30:11;;;;;;;38.45;21.00;;;;;;;10.20;57.10;102114.13;4995582;28;20102;-84
2021/03/03 07:32:38;;;;;;;44.30;21.10;;;;;;;9.87;56.10;102106.44;4974040;28;20784;-84
2021/03/03 07:35:25;;;;;;;80.15;26.98;;;;;;;10.20;55.56;102104.44;4973305;28;20043;-84
2021/03/03 07:37:56;;;;;;;39.97;20.05;;;;;;;10.77;53.78;102105.13;4963717;28;20098;-82
2021/03/03 07:40:28;;;;;;;42.75;22.65;;;;;;;11.29;52.09;102098.78;4975469;28;20134;-84
2021/03/03 07:42:56;;;;;;;46.28;22.48;;;;;;;13.00;48.21;102098.66;4962483;28;20075;-84
2021/03/03 07:45:26;;;;;;;39.60;21.05;;;;;;;13.09;47.85;102097.38;4976185;28;20660;-83
2021/03/03 07:47:54;;;;;;;41.88;22.00;;;;;;;13.15;46.79;102095.34;4995330;28;20054;-84
2021/03/03 07:50:22;;;;;;;45.33;22.48;;;;;;;13.65;45.90;102086.81;4979211;28;20123;-83
2021/03/03 07:52:56;;;;;;;44.55;23.73;;;;;;;14.04;44.79;102090.22;4970488;28;20059;-82
2021/03/03 07:55:24;;;;;;;42.58;24.27;;;;;;;15.63;41.26;102087.88;4979797;28;20052;-84
2021/03/03 07:57:52;;;;;;;41.60;24.48;;;;;;;15.70;40.69;102076.00;4995657;28;20114;-85
2021/03/03 08:00:20;;;;;;;44.17;25.00;;;;;;;15.28;41.19;102081.91;4965242;28;21647;-84
2021/03/03 08:02:49;;;;;;;48.97;24.17;;;;;;;14.86;41.98;102087.72;4978570;28;20081;-84
2021/03/03 08:05:30;;;;;;;51.10;23.83;;;;;;;15.01;42.31;102088.72;4988168;28;20051;-82
2021/03/03 08:08:28;;;;;;;39.53;22.98;;;;;;;14.62;42.48;102093.41;4984089;28;20038;-84
2021/03/03 08:10:58;;;;;;;47.10;23.35;;;;;;;15.26;41.83;102074.97;4960753;28;20105;-82
2021/03/03 08:13:32;;;;;;;37.88;25.42;;;;;;;16.20;39.06;102074.84;4985259;28;20106;-82
2021/03/03 08:16:00;;;;;;;38.42;23.05;;;;;;;16.53;38.05;102075.56;4980314;28;20154;-83
2021/03/03 08:18:31;;;;;;;42.28;23.02;;;;;;;15.13;41.28;102073.00;4977475;28;20047;-83
2021/03/03 08:20:59;;;;;;;43.20;24.65;;;;;;;14.37;42.90;102080.56;4979987;28;20047;-83
2021/03/03 08:23:38;;;;;;;42.60;24.65;;;;;;;14.39;43.43;102077.81;4977507;28;21082;-83
2021/03/03 08:26:12;;;;;;;40.95;25.13;;;;;;;14.58;42.98;102068.00;4992525;28;20547;-82
2021/03/03 08:28:43;;;;;;;48.22;25.40;;;;;;;15.73;40.62;102055.53;4972285;28;20058;-84
2021/03/03 08:31:13;;;;;;;44.90;26.13;;;;;;;16.23;39.35;102055.22;4980004;28;20066;-84
2021/03/03 08:33:42;;;;;;;44.75;26.13;;;;;;;16.90;37.73;102051.09;4981120;28;20065;-85
2021/03/03 08:36:17;;;;;;;47.10;25.95;;;;;;;18.11;35.61;102051.19;4977932;28;20227;-82
2021/03/03 08:39:09;;;;;;;48.28;26.45;;;;;;;16.45;37.79;102057.44;4981209;28;20043;-84
2021/03/03 08:41:38;;;;;;;47.05;27.00;;;;;;;16.38;39.38;102048.97;4982868;28;20055;-84
2021/03/03 08:44:05;;;;;;;43.25;25.70;;;;;;;15.38;41.35;102050.41;4980705;28;20177;-84
2021/03/03 08:46:34;;;;;;;47.28;28.00;;;;;;;16.80;38.37;102039.34;4965188;28;20046;-84
2021/03/03 08:49:01;;;;;;;48.22;26.27;;;;;;;15.85;40.02;102039.75;4982549;28;20046;-84
2021/03/03 08:51:32;;;;;;;45.67;25.85;;;;;;;15.45;41.05;102035.84;4984166;28;20043;-84
2021/03/03 08:54:07;;;;;;;45.17;26.27;;;;;;;15.62;40.83;102040.19;4983490;28;20138;-84
2021/03/03 08:56:41;;;;;;;44.90;26.58;;;;;;;16.95;37.98;102035.69;4966088;28;20066;-83
2021/03/03 08:59:08;;;;;;;45.67;27.30;;;;;;;16.77;38.61;102033.34;4986911;28;20054;-85
2021/03/03 09:01:55;;;;;;;45.80;27.27;;;;;;;17.64;36.43;102027.69;4958603;28;20050;-83
2021/03/03 09:04:32;;;;;;;47.10;26.67;;;;;;;16.74;38.28;102042.34;4982381;28;20062;-84
2021/03/03 09:07:00;;;;;;;;;;;;;;;16.07;39.96;102033.16;4964978;28;20144;-84
2021/03/03 09:09:31;;;;;;;45.25;26.65;;;;;;;16.38;39.05;102038.31;4981882;28;19949;-85
2021/03/03 09:12:06;;;;;;;42.75;27.38;;;;;;;15.24;41.16;102029.94;4965835;28;20055;-84
2021/03/03 09:14:35;;;;;;;44.95;27.85;;;;;;;15.43;40.86;102030.63;4966430;28;20069;-85
2021/03/03 09:17:05;;;;;;;50.20;28.70;;;;;;;16.79;38.22;102021.66;4969046;28;20120;-84
2021/03/03 09:19:33;;;;;;;46.17;27.55;;;;;;;17.34;37.44;102019.94;4982359;28;20053;-85
2021/03/03 09:22:02;;;;;;;54.67;28.05;;;;;;;17.61;37.07;102028.78;4980659;28;20061;-84
2021/03/03 09:24:29;;;;;;;45.47;27.88;;;;;;;16.69;38.58;102028.47;4986845;28;20045;-84
2021/03/03 09:27:07;;;;;;;47.58;27.05;;;;;;;15.96;39.28;102025.81;4985756;28;20062;-85
2021/03/03 09:29:36;;;;;;;50.45;29.30;;;;;;;15.84;40.21;102011.47;4977868;28;20079;-83
2021/03/03 09:32:09;;;;;;;53.55;28.98;;;;;;;15.92;39.88;102014.53;4984004;28;20066;-84
2021/03/03 09:34:53;;;;;;;50.60;28.02;;;;;;;18.17;35.49;102005.47;4983847;28;20134;-84
2021/03/03 09:37:21;;;;;;;49.80;29.75;;;;;;;18.50;35.11;102005.88;4989684;28;20102;-84
2021/03/03 09:39:56;;;;;;;48.15;29.77;;;;;;;18.87;33.99;102009.50;4978181;28;20027;-85
2021/03/03 09:42:24;;;;;;;53.53;30.23;;;;;;;17.28;36.36;102009.69;4968134;28;20042;-86
2021/03/03 09:44:53;;;;;;;57.10;29.13;;;;;;;15.69;40.24;102010.56;4969721;28;20038;-85
2021/03/03 09:47:21;;;;;;;46.72;29.38;;;;;;;14.66;42.97;102009.28;4968071;28;20051;-83
2021/03/03 09:49:49;;;;;;;60.42;30.98;;;;;;;12.37;48.36;102016.06;4955546;28;20110;-83
2021/03/03 09:52:16;;;;;;;51.65;30.13;;;;;;;11.07;52.08;102009.13;4970330;28;20208;-85
2021/03/03 09:54:43;;;;;;;58.58;31.85;;;;;;;10.54;54.54;102017.28;4974637;28;20406;-82
2021/03/03 09:57:11;;;;;;;49.83;28.65;;;;;;;10.27;55.77;102016.50;4966367;28;20079;-84
2021/03/03 09:59:44;;;;;;;57.03;30.42;;;;;;;9.84;57.31;102012.69;4966661;28;20078;-85
2021/03/03 10:02:12;;;;;;;55.78;29.25;;;;;;;9.65;57.54;102011.59;4987137;28;20106;-84
2021/03/03 10:04:41;;;;;;;47.97;28.15;;;;;;;9.64;58.04;102010.72;4956381;28;20058;-84
2021/03/03 10:07:23;;;;;;;54.20;27.90;;;;;;;9.37;58.73;102007.22;4967485;28;20047;-82
2021/03/03 10:09:55;;;;;;;57.85;28.33;;;;;;;9.28;59.32;102006.66;4963847;28;20047;-84
2021/03/03 10:12:24;;;;;;;46.08;26.60;;;;;;;9.43;59.46;102006.16;4944234;28;20039;-84
2021/03/03 10:15:03;;;;;;;49.42;27.83;;;;;;;9.53;59.18;102002.31;4970484;28;20035;-85
2021/03/03 10:17:33;;;;;;;54.17;26.88;;;;;;;9.53;58.78;101996.19;4974449;28;20055;-83
2021/03/03 10:20:07;;;;;;;41.15;24.88;;;;;;;9.62;58.73;102006.41;4976213;28;20047;-83
2021/03/03 10:22:35;;;;;;;46.80;26.52;;;;;;;9.48;58.93;101993.72;4961138;28;20165;-83
2021/03/03 10:25:06;;;;;;;49.17;27.02;;;;;;;9.42;59.75;102004.44;4991674;28;20142;-84
2021/03/03 10:27:40;;;;;;;52.92;27.80;;;;;;;9.70;58.78;101993.03;4986203;28;20061;-84
2021/03/03 10:30:23;;;;;;;48.83;26.40;;;;;;;9.63;58.60;101992.34;4968835;28;20074;-84
2021/03/03 10:32:50;;;;;;;60.03;26.80;;;;;;;9.66;58.73;101992.25;4965755;28;20514;-84
2021/03/03 10:35:17;;;;;;;52.20;27.55;;;;;;;9.86;57.73;101988.94;4969083;28;20062;-84
2021/03/03 10:37:44;;;;;;;45.42;26.30;;;;;;;10.05;57.89;101982.16;4960054;28;20305;-84
2021/03/03 10:40:14;;;;;;;50.78;26.10;;;;;;;10.07;57.88;101980.31;4958011;28;20274;-84
2021/03/03 10:42:42;;;;;;;46.00;27.20;;;;;;;10.17;57.24;101983.47;4952884;28;20043;-84
2021/03/03 10:45:23;;;;;;;42.22;25.50;;;;;;;10.15;56.56;101977.44;4969855;28;20066;-85
2021/03/03 10:47:51;;;;;;;45.03;24.33;;;;;;;10.15;56.74;101970.38;4950343;28;20109;-85
2021/03/03 10:50:32;;;;;;;44.05;24.20;;;;;;;10.31;56.27;101970.75;4964568;28;20042;-83
2021/03/03 10:53:05;;;;;;;47.28;25.17;;;;;;;10.43;55.95;101965.94;4964990;28;20158;-83
2021/03/03 10:55:34;;;;;;;43.42;24.65;;;;;;;10.35;56.07;101961.78;4950830;28;20141;-83
2021/03/03 10:58:05;;;;;;;51.67;27.38;;;;;;;10.33;55.91;101965.41;4949054;28;20778;-83
2021/03/03 11:00:52;;;;;;;43.13;23.83;;;;;;;10.45;56.22;101949.19;4962557;28;20051;-84
2021/03/03 11:03:19;;;;;;;49.55;25.40;;;;;;;10.58;55.52;101946.91;4943821;28;20067;-82
2021/03/03 11:05:54;;;;;;;42.45;25.38;;;;;;;10.71;55.97;101948.16;4968521;28;20111;-83
2021/03/03 11:08:22;;;;;;;43.50;25.00;;;;;;;10.75;55.08;101948.91;4958759;28;20067;-82
2021/03/03 11:10:50;;;;;;;47.35;26.05;;;;;;;10.56;55.21;101941.72;4977811;28;20477;-83
2021/03/03 11:13:16;;;;;;;39.88;24.35;;;;;;;10.68;55.61;101940.41;4981638;28;20169;-84
2021/03/03 11:15:44;;;;;;;44.08;24.77;;;;;;;10.89;55.43;101934.28;4969719;28;20082;-82
2021/03/03 11:18:12;;;;;;;43.15;24.63;;;;;;;11.02;54.80;101921.47;4965675;28;20054;-84
2021/03/03 11:20:39;;;;;;;41.42;25.50;;;;;;;10.96;54.56;101921.72;4985344;28;20138;-83
2021/03/03 11:23:06;;;;;;;50.40;28.08;;;;;;;11.06;55.52;101911.69;4969563;28;20114;-83
2021/03/03 11:25:34;;;;;;;43.35;25.30;;;;;;;11.25;55.91;101914.41;4977453;28;20070;-87